createdAt,value
2019-03-05T00:00:30.081Z,57.10
2019-03-05T00:03:00.836Z,54.90
2019-03-05T00:05:31.470Z,52.00
2019-03-05T00:10:31.851Z,51.80
2019-03-05T00:15:32.660Z,53.92
2019-03-05T00:18:03.416Z,56.13
2019-03-05T00:20:34.272Z,45.78
2019-03-05T00:23:05.128Z,55.90
2019-03-05T00:25:37.052Z,59.10
2019-03-05T00:28:19.730Z,58.60
2019-03-05T00:30:59.787Z,59.55
2019-03-05T00:33:36.453Z,63.23
2019-03-05T00:36:10.702Z,57.05
2019-03-05T00:38:53.100Z,60.50
2019-03-05T00:41:38.793Z,54.23
2019-03-05T00:44:28.373Z,67.95
2019-03-05T00:47:20.188Z,64.40
2019-03-05T00:50:06.268Z,75.87
2019-03-05T00:52:40.014Z,65.47
2019-03-05T00:55:13.835Z,65.17
2019-03-05T00:57:53.079Z,61.50
2019-03-05T01:00:42.070Z,63.90
2019-03-05T01:03:28.083Z,58.25
2019-03-05T01:06:07.975Z,53.95
2019-03-05T01:08:38.845Z,66.15
2019-03-05T01:11:09.698Z,57.23
2019-03-05T01:13:40.456Z,53.48
2019-03-05T01:16:12.846Z,63.10
2019-03-05T01:18:43.683Z,64.45
2019-03-05T01:21:14.456Z,55.95
2019-03-05T01:23:45.088Z,65.28
2019-03-05T01:26:15.961Z,60.63
2019-03-05T01:28:46.713Z,59.10
2019-03-05T01:31:30.874Z,55.10
2019-03-05T01:34:03.153Z,56.28
2019-03-05T01:36:35.546Z,55.05
2019-03-05T01:39:12.231Z,59.27
2019-03-05T01:41:43.086Z,52.35
2019-03-05T01:44:14.749Z,60.92
2019-03-05T01:46:45.415Z,56.23
2019-03-05T01:49:16.150Z,69.72
2019-03-05T01:51:47.020Z,56.05
2019-03-05T01:54:17.776Z,54.05
2019-03-05T01:56:48.410Z,67.90
2019-03-05T02:01:48.896Z,79.90
2019-03-05T02:06:49.500Z,68.07
2019-03-05T02:09:20.253Z,66.40
2019-03-05T02:11:51.144Z,56.88
2019-03-05T02:14:21.965Z,55.63
2019-03-05T02:16:52.705Z,71.07
2019-03-05T02:19:37.997Z,64.12
2019-03-05T02:22:11.291Z,53.33
2019-03-05T02:25:03.215Z,57.40
2019-03-05T02:27:42.766Z,59.40
2019-03-05T02:30:37.047Z,55.60
2019-03-05T02:33:10.986Z,52.80
2019-03-05T02:35:56.979Z,46.30
2019-03-05T02:38:56.370Z,50.52
2019-03-05T02:41:36.225Z,57.00
2019-03-05T02:44:44.207Z,60.15
2019-03-05T02:47:40.530Z,54.63
2019-03-05T02:50:29.795Z,68.50
2019-03-05T02:53:06.686Z,52.93
2019-03-05T02:55:55.445Z,44.08
2019-03-05T02:58:24.866Z,58.73
2019-03-05T03:00:57.234Z,45.92
2019-03-05T03:03:38.627Z,55.73
2019-03-05T03:06:10.933Z,43.35
2019-03-05T03:08:41.791Z,45.28
2019-03-05T03:11:12.535Z,48.10
2019-03-05T03:13:43.297Z,45.90
2019-03-05T03:16:14.150Z,49.00
2019-03-05T03:18:44.907Z,48.65
2019-03-05T03:21:15.660Z,40.70
2019-03-05T03:23:46.314Z,42.40
2019-03-05T03:26:17.167Z,47.67
2019-03-05T03:28:47.922Z,41.95
2019-03-05T03:31:18.678Z,43.65
2019-03-05T03:33:49.215Z,36.93
2019-03-05T03:36:20.063Z,44.05
2019-03-05T03:38:50.836Z,40.90
2019-03-05T03:41:21.588Z,44.53
2019-03-05T03:43:52.239Z,42.30
2019-03-05T03:46:24.118Z,40.60
2019-03-05T03:48:54.978Z,43.65
2019-03-05T03:51:25.831Z,37.40
2019-03-05T03:53:56.484Z,44.77
2019-03-05T03:56:27.341Z,37.75
2019-03-05T03:58:58.193Z,39.60
2019-03-05T04:01:28.950Z,41.68
2019-03-05T04:03:59.497Z,42.53
2019-03-05T04:06:30.356Z,38.78
2019-03-05T04:09:01.109Z,35.40
2019-03-05T04:11:31.862Z,37.00
2019-03-05T04:14:02.521Z,41.20
2019-03-05T04:16:33.369Z,31.95
2019-03-05T04:19:05.658Z,30.48
2019-03-05T04:21:36.414Z,34.38
2019-03-05T04:24:07.149Z,35.40
2019-03-05T04:26:38.033Z,38.70
2019-03-05T04:29:08.777Z,33.25
2019-03-05T04:31:39.409Z,29.72
2019-03-05T04:34:10.163Z,33.23
2019-03-05T04:36:41.035Z,34.60
2019-03-05T04:39:12.302Z,33.55
2019-03-05T04:41:43.156Z,33.38
2019-03-05T04:44:15.446Z,35.45
2019-03-05T04:46:48.756Z,33.63
2019-03-05T04:49:29.942Z,35.60
2019-03-05T04:52:04.793Z,29.30
2019-03-05T04:54:35.130Z,30.52
2019-03-05T04:57:05.988Z,25.25
2019-03-05T04:59:36.846Z,28.38
2019-03-05T05:02:07.583Z,29.25
2019-03-05T05:04:38.351Z,31.00
2019-03-05T05:07:09.193Z,29.12
2019-03-05T05:09:39.963Z,27.22
2019-03-05T05:12:10.714Z,23.02
2019-03-05T05:14:41.348Z,28.73
2019-03-05T05:17:12.223Z,25.80
2019-03-05T05:19:42.856Z,27.13
2019-03-05T05:22:13.632Z,24.55
2019-03-05T05:24:44.277Z,25.75
2019-03-05T05:27:15.117Z,22.40
2019-03-05T05:29:45.889Z,26.97
2019-03-05T05:32:16.644Z,19.05
2019-03-05T05:34:47.294Z,21.25
2019-03-05T05:37:18.134Z,24.60
2019-03-05T05:40:23.973Z,19.77
2019-03-05T05:42:54.943Z,17.98
2019-03-05T05:45:37.768Z,21.68
2019-03-05T05:48:09.323Z,23.32
2019-03-05T05:50:39.786Z,21.50
2019-03-05T05:53:10.847Z,20.35
2019-03-05T05:55:41.482Z,22.07
2019-03-05T05:58:12.251Z,30.95
2019-03-05T06:00:44.423Z,24.85
2019-03-05T06:03:15.293Z,24.63
2019-03-05T06:05:45.741Z,28.05
2019-03-05T06:08:16.494Z,23.85
2019-03-05T06:10:47.024Z,22.95
2019-03-05T06:15:47.405Z,26.60
2019-03-05T06:20:47.910Z,19.50
2019-03-05T06:23:18.663Z,15.50
2019-03-05T06:25:49.316Z,14.60
2019-03-05T06:28:20.173Z,14.18
2019-03-05T06:30:51.010Z,19.30
2019-03-05T06:33:21.789Z,14.87
2019-03-05T06:35:52.640Z,17.45
2019-03-05T06:38:23.494Z,20.43
2019-03-05T06:40:54.247Z,18.73
2019-03-05T06:43:24.795Z,18.50
2019-03-05T06:45:55.635Z,15.40
2019-03-05T06:48:27.314Z,17.87
2019-03-05T06:50:58.246Z,19.12
2019-03-05T06:53:29.020Z,16.10
2019-03-05T06:58:29.409Z,20.57
2019-03-05T07:03:30.093Z,15.60
2019-03-05T07:06:37.063Z,20.72
2019-03-05T07:09:16.913Z,24.15
2019-03-05T07:12:18.161Z,22.85
2019-03-05T07:15:10.068Z,23.30
2019-03-05T07:17:49.414Z,24.02
2019-03-05T07:20:39.924Z,23.18
2019-03-05T07:23:19.457Z,16.30
2019-03-05T07:25:50.022Z,18.20
2019-03-05T07:28:20.551Z,19.25
2019-03-05T07:30:51.427Z,22.90
2019-03-05T07:33:22.178Z,24.72
2019-03-05T07:35:52.915Z,17.90
2019-03-05T07:38:23.364Z,20.23
2019-03-05T07:43:23.866Z,18.40
2019-03-05T07:48:24.353Z,14.97
2019-03-05T07:50:56.026Z,18.17
2019-03-05T07:53:26.574Z,18.37
2019-03-05T07:55:57.412Z,21.60
2019-03-05T08:00:57.710Z,20.08
2019-03-05T08:03:28.259Z,17.65
2019-03-05T08:09:05.869Z,19.20
2019-03-05T08:11:36.305Z,23.35
2019-03-05T08:14:19.040Z,25.50
2019-03-05T08:16:49.688Z,19.12
2019-03-05T08:19:20.345Z,23.52
2019-03-05T08:21:50.874Z,18.30
2019-03-05T08:26:51.381Z,25.00
2019-03-05T08:29:22.128Z,18.15
2019-03-05T08:34:23.211Z,18.82
2019-03-05T08:39:23.594Z,21.15
2019-03-05T08:41:54.260Z,20.92
2019-03-05T08:44:25.015Z,20.62
2019-03-05T08:46:55.857Z,18.77
2019-03-05T08:49:26.627Z,21.68
2019-03-05T08:51:58.300Z,18.52
2019-03-05T08:54:28.649Z,21.50
2019-03-05T08:56:59.398Z,18.52
2019-03-05T08:59:32.565Z,20.35
2019-03-05T09:02:02.221Z,19.02
2019-03-05T09:04:32.784Z,17.92
2019-03-05T09:07:03.540Z,18.20
2019-03-05T09:12:04.027Z,14.85
2019-03-05T09:17:05.211Z,19.87
2019-03-05T09:19:35.774Z,18.52
2019-03-05T09:24:36.140Z,16.33
2019-03-05T09:27:06.691Z,16.60
2019-03-05T09:29:37.548Z,15.68
2019-03-05T09:32:08.198Z,21.27
2019-03-05T09:34:38.971Z,19.00
2019-03-05T09:37:09.502Z,17.40
2019-03-05T09:39:40.377Z,21.50
2019-03-05T09:42:11.333Z,17.40
2019-03-05T09:47:11.615Z,16.82
2019-03-05T09:49:42.368Z,22.50
2019-03-05T09:52:14.025Z,19.37
2019-03-05T09:54:44.798Z,19.85
2019-03-05T09:57:15.534Z,19.40
2019-03-05T09:59:46.404Z,18.95
2019-03-05T10:02:17.160Z,18.87
2019-03-05T10:04:47.897Z,24.72
2019-03-05T10:07:19.380Z,16.67
2019-03-05T10:09:50.225Z,20.20
2019-03-05T10:12:21.095Z,22.58
2019-03-05T10:14:51.953Z,22.20
2019-03-05T10:17:22.587Z,17.90
2019-03-05T10:22:23.295Z,16.65
2019-03-05T10:24:53.926Z,15.53
2019-03-05T10:27:25.194Z,18.82
2019-03-05T10:29:55.967Z,13.32
2019-03-05T10:32:26.597Z,20.30
2019-03-05T10:34:57.350Z,15.75
2019-03-05T10:37:28.109Z,18.52
2019-03-05T10:39:58.878Z,21.12
2019-03-05T10:42:31.910Z,18.60
2019-03-05T10:45:01.731Z,19.30
2019-03-05T10:47:32.572Z,22.67
2019-03-05T10:50:03.308Z,22.17
2019-03-05T10:52:34.897Z,20.85
2019-03-05T10:55:08.831Z,16.55
2019-03-05T10:57:39.371Z,11.60
2019-03-05T11:00:26.366Z,16.12
2019-03-05T11:02:56.937Z,19.95
2019-03-05T11:05:28.820Z,16.67
2019-03-05T11:07:59.160Z,17.02
2019-03-05T11:10:31.263Z,19.17
2019-03-05T11:13:01.893Z,23.00
2019-03-05T11:15:36.336Z,16.87
2019-03-05T11:18:08.601Z,18.92
2019-03-05T11:20:39.454Z,18.67
2019-03-05T11:23:11.706Z,20.43
2019-03-05T11:25:42.413Z,14.13
2019-03-05T11:28:13.149Z,16.65
2019-03-05T11:30:44.025Z,16.42
2019-03-05T11:33:14.367Z,16.37
2019-03-05T11:35:45.123Z,12.37
2019-03-05T11:38:16.063Z,17.85
2019-03-05T11:40:46.940Z,14.58
2019-03-05T11:43:18.406Z,19.07
2019-03-05T11:45:48.956Z,14.07
2019-03-05T11:48:19.711Z,20.52
2019-03-05T11:50:51.647Z,19.20
2019-03-05T11:53:23.460Z,15.90
2019-03-05T11:55:53.919Z,14.47
2019-03-05T11:58:24.654Z,21.65
2019-03-05T12:01:02.990Z,17.73
2019-03-05T12:03:33.744Z,17.65
2019-03-05T12:06:04.500Z,21.93
2019-03-05T12:08:35.028Z,16.30
2019-03-05T12:11:05.500Z,28.67
2019-03-05T12:13:36.460Z,28.80
2019-03-05T12:16:07.411Z,46.02
2019-03-05T12:18:38.373Z,34.95
2019-03-05T12:21:09.208Z,19.27
2019-03-05T12:23:46.719Z,23.15
2019-03-05T12:26:12.166Z,14.90
2019-03-05T12:28:42.923Z,16.27
2019-03-05T12:31:13.778Z,14.40
2019-03-05T12:33:44.635Z,15.55
2019-03-05T12:36:15.387Z,16.97
2019-03-05T12:38:46.408Z,22.80
2019-03-05T12:41:17.405Z,19.25
2019-03-05T12:43:48.040Z,17.73
2019-03-05T12:48:48.542Z,15.40
2019-03-05T12:51:19.193Z,14.55
2019-03-05T12:53:50.154Z,17.25
2019-03-05T12:56:24.154Z,23.15
2019-03-05T12:58:53.093Z,19.62
2019-03-05T13:01:23.745Z,25.37
2019-03-05T13:03:54.482Z,21.90
2019-03-05T13:06:25.458Z,22.00
2019-03-05T13:11:25.516Z,20.87
2019-03-05T13:14:05.751Z,18.12
2019-03-05T13:16:28.165Z,15.32
2019-03-05T13:18:58.919Z,23.20
2019-03-05T13:21:29.552Z,20.37
2019-03-05T13:24:00.428Z,30.55
2019-03-05T13:26:31.077Z,31.57
2019-03-05T13:29:01.814Z,21.35
2019-03-05T13:31:32.484Z,19.98
2019-03-05T13:34:03.235Z,16.50
2019-03-05T13:36:34.091Z,23.65
2019-03-05T13:39:05.245Z,19.62
2019-03-05T13:41:35.805Z,15.85
2019-03-05T13:44:08.079Z,22.75
2019-03-05T13:46:38.727Z,24.07
2019-03-05T13:49:17.947Z,18.23
2019-03-05T13:52:08.667Z,16.00
2019-03-05T13:54:49.794Z,28.07
2019-03-05T13:57:26.251Z,18.73
2019-03-05T13:59:57.104Z,20.10
2019-03-05T14:02:29.000Z,22.52
2019-03-05T14:05:11.911Z,23.73
2019-03-05T14:08:08.536Z,23.15
2019-03-05T14:10:39.192Z,25.23
2019-03-05T14:13:10.565Z,28.77
2019-03-05T14:15:43.071Z,23.32
2019-03-05T14:18:13.807Z,23.10
2019-03-05T14:20:44.648Z,19.95
2019-03-05T14:23:15.397Z,24.12
2019-03-05T14:25:46.151Z,24.63
2019-03-05T14:28:16.813Z,27.80
2019-03-05T14:30:47.722Z,24.45
2019-03-05T14:33:18.549Z,22.60
2019-03-05T14:35:49.287Z,18.05
2019-03-05T14:38:20.042Z,21.75
2019-03-05T14:40:50.883Z,22.25
2019-03-05T14:43:21.561Z,21.93
2019-03-05T14:48:22.151Z,20.10
2019-03-05T14:50:52.922Z,25.27
2019-03-05T14:53:23.786Z,27.77
2019-03-05T14:55:55.525Z,34.45
2019-03-05T14:58:26.410Z,37.08
2019-03-05T15:00:57.265Z,41.90
2019-03-05T15:03:27.808Z,45.23
2019-03-05T15:05:58.643Z,30.02
2019-03-05T15:08:29.397Z,27.32
2019-03-05T15:11:00.141Z,27.10
2019-03-05T15:13:30.722Z,32.13
2019-03-05T15:16:01.540Z,26.45
2019-03-05T15:18:32.448Z,29.95
2019-03-05T15:21:03.268Z,24.43
2019-03-05T15:23:34.005Z,34.67
2019-03-05T15:26:04.888Z,33.92
2019-03-05T15:28:35.649Z,41.25
2019-03-05T15:31:06.303Z,40.45
2019-03-05T15:33:37.368Z,48.45
2019-03-05T15:36:08.103Z,41.40
2019-03-05T15:38:38.637Z,34.23
2019-03-05T15:41:09.504Z,39.88
2019-03-05T15:43:40.363Z,29.90
2019-03-05T15:46:11.259Z,32.48
2019-03-05T15:48:42.180Z,36.40
2019-03-05T15:51:12.926Z,37.00
2019-03-05T15:56:15.357Z,34.53
2019-03-05T15:58:45.700Z,32.63
2019-03-05T16:01:22.351Z,72.42
2019-03-05T16:03:50.276Z,60.10
2019-03-05T16:06:21.133Z,51.20
2019-03-05T16:08:51.772Z,37.35
2019-03-05T16:13:56.367Z,31.95
2019-03-05T16:16:24.337Z,34.73
2019-03-05T16:21:24.821Z,30.62
2019-03-05T16:23:55.591Z,31.00
2019-03-05T16:26:26.330Z,30.75
2019-03-05T16:28:57.204Z,31.95
2019-03-05T16:31:32.559Z,33.88
2019-03-05T16:34:04.643Z,33.02
2019-03-05T16:36:55.119Z,36.83
2019-03-05T16:39:31.815Z,35.10
2019-03-05T16:42:13.826Z,82.37
2019-03-05T16:44:52.544Z,90.17
2019-03-05T16:47:25.236Z,73.12
2019-03-05T16:50:15.747Z,42.78
2019-03-05T16:52:47.930Z,34.43
2019-03-05T16:55:29.508Z,24.98
2019-03-05T16:58:14.804Z,31.20
2019-03-05T17:00:59.466Z,27.25
2019-03-05T17:03:40.754Z,25.62
2019-03-05T17:06:15.804Z,40.33
2019-03-05T17:09:03.110Z,38.67
2019-03-05T17:11:35.416Z,36.65
2019-03-05T17:14:15.068Z,36.60
2019-03-05T17:16:45.908Z,32.58
2019-03-05T17:19:16.778Z,30.82
2019-03-05T17:21:47.719Z,31.52
2019-03-05T17:24:18.687Z,34.67
2019-03-05T17:26:49.144Z,42.27
2019-03-05T17:29:19.778Z,38.53
2019-03-05T17:31:50.532Z,38.53
2019-03-05T17:34:21.301Z,33.35
2019-03-05T17:36:52.159Z,37.15
2019-03-05T17:39:23.219Z,33.92
2019-03-05T17:41:53.854Z,38.80
2019-03-05T17:44:24.732Z,37.17
2019-03-05T17:46:55.468Z,42.30
2019-03-05T17:49:26.257Z,42.93
2019-03-05T17:51:56.884Z,35.92
2019-03-05T17:54:27.741Z,40.20
2019-03-05T17:56:58.687Z,34.75
2019-03-05T17:59:30.283Z,25.17
2019-03-05T18:02:00.723Z,26.05
2019-03-05T18:04:31.576Z,25.90
2019-03-05T18:07:02.620Z,22.30
2019-03-05T18:09:33.274Z,18.57
2019-03-05T18:14:33.859Z,15.78
2019-03-05T18:17:04.323Z,18.80
2019-03-05T18:22:05.100Z,17.12
2019-03-05T18:24:35.768Z,18.35
2019-03-05T18:27:06.709Z,17.65
2019-03-05T18:29:37.688Z,16.48
2019-03-05T18:32:08.334Z,15.30
2019-03-05T18:34:39.071Z,24.65
2019-03-05T18:37:09.929Z,70.67
2019-03-05T18:39:42.626Z,95.80
2019-03-05T18:42:13.482Z,65.75
2019-03-05T18:44:44.238Z,145.05
2019-03-05T18:47:14.885Z,89.25
2019-03-05T18:49:46.299Z,94.17
2019-03-05T18:52:16.804Z,27.67
2019-03-05T18:54:47.458Z,20.65
2019-03-05T18:57:18.312Z,24.23
2019-03-05T18:59:50.104Z,20.12
2019-03-05T19:02:20.963Z,22.87
2019-03-05T19:04:51.697Z,14.20
2019-03-05T19:09:52.204Z,17.83
2019-03-05T19:12:23.143Z,27.50
2019-03-05T19:14:53.800Z,43.68
2019-03-05T19:17:24.975Z,27.73
2019-03-05T19:19:55.918Z,17.27
2019-03-05T19:22:26.685Z,13.72
2019-03-05T19:24:57.422Z,17.05
2019-03-05T19:27:28.197Z,18.65
2019-03-05T19:29:59.051Z,16.60
2019-03-05T19:32:29.788Z,14.68
2019-03-05T19:35:00.647Z,15.03
2019-03-05T19:37:31.318Z,14.03
2019-03-05T19:40:02.150Z,15.58
2019-03-05T19:42:32.923Z,11.45
2019-03-05T19:45:04.197Z,16.42
2019-03-05T19:47:34.631Z,17.30
2019-03-05T19:50:08.558Z,16.62
2019-03-05T19:52:39.195Z,76.33
2019-03-05T20:00:17.916Z,62.10
2019-03-05T20:02:48.548Z,54.50
2019-03-05T20:05:19.321Z,25.50
2019-03-05T20:07:51.711Z,23.12
2019-03-05T20:10:25.008Z,22.80
2019-03-05T20:12:55.656Z,18.15
2019-03-05T20:15:26.410Z,20.20
2019-03-05T20:17:59.163Z,17.00
2019-03-05T20:20:29.352Z,15.60
2019-03-05T20:23:00.120Z,22.27
2019-03-05T20:25:31.453Z,17.48
2019-03-05T20:28:01.818Z,15.78
2019-03-05T20:30:32.691Z,18.10
2019-03-05T20:33:03.446Z,20.12
2019-03-05T20:35:34.078Z,19.87
2019-03-05T20:38:06.266Z,16.37
2019-03-05T20:40:37.120Z,19.07
2019-03-05T20:43:07.893Z,19.98
2019-03-05T20:45:50.508Z,17.30
2019-03-05T20:48:23.719Z,18.52
2019-03-05T20:50:54.470Z,21.00
2019-03-05T20:53:25.227Z,19.23
2019-03-05T20:55:56.069Z,16.37
2019-03-05T20:58:27.126Z,17.50
2019-03-05T21:03:28.121Z,15.83
2019-03-05T21:05:59.094Z,13.53
2019-03-05T21:10:59.462Z,15.33
2019-03-05T21:15:59.962Z,15.10
2019-03-05T21:18:32.436Z,15.13
2019-03-05T21:21:03.343Z,15.18
2019-03-05T21:23:34.474Z,16.52
2019-03-05T21:26:04.906Z,15.48
2019-03-05T21:28:35.761Z,12.13
2019-03-05T21:31:06.515Z,17.82
2019-03-05T21:33:37.286Z,20.40
2019-03-05T21:36:07.938Z,14.55
2019-03-05T21:38:38.795Z,25.40
2019-03-05T21:41:09.548Z,16.17
2019-03-05T21:43:40.284Z,17.55
2019-03-05T21:46:14.209Z,19.80
2019-03-05T21:48:45.084Z,19.37
2019-03-05T21:51:15.717Z,15.95
2019-03-05T21:56:16.015Z,21.95
2019-03-05T21:58:46.647Z,21.82
2019-03-05T22:01:18.440Z,17.40
2019-03-05T22:03:49.504Z,15.28
2019-03-05T22:06:20.460Z,20.32
2019-03-05T22:08:51.215Z,16.87
2019-03-05T22:11:21.867Z,18.32
2019-03-05T22:13:52.721Z,16.07
2019-03-05T22:16:23.578Z,20.25
2019-03-05T22:18:54.213Z,16.52
2019-03-05T22:23:54.596Z,14.90
2019-03-05T22:26:25.469Z,19.90
2019-03-05T22:28:56.326Z,17.25
2019-03-05T22:31:27.164Z,18.65
2019-03-05T22:33:57.936Z,19.67
2019-03-05T22:36:28.587Z,18.27
2019-03-05T22:38:59.324Z,19.82
2019-03-05T22:41:30.092Z,24.27
2019-03-05T22:44:00.848Z,21.48
2019-03-05T22:46:31.626Z,20.43
2019-03-05T22:51:31.780Z,21.10
2019-03-05T22:54:02.432Z,20.52
2019-03-05T22:56:33.291Z,22.85
2019-03-05T22:59:04.144Z,25.45
2019-03-05T23:01:37.300Z,24.32
2019-03-05T23:04:07.697Z,22.67
2019-03-05T23:06:38.435Z,21.05
2019-03-05T23:11:40.983Z,20.92
2019-03-05T23:14:11.839Z,23.05
2019-03-05T23:16:42.693Z,18.27
2019-03-05T23:19:13.755Z,22.20
2019-03-05T23:21:44.304Z,22.13
2019-03-05T23:24:15.144Z,22.22
2019-03-05T23:26:45.915Z,20.25
2019-03-05T23:29:16.549Z,24.95
2019-03-05T23:31:47.730Z,23.02
2019-03-05T23:34:18.672Z,21.93
2019-03-05T23:36:49.237Z,23.30
2019-03-05T23:39:20.102Z,21.33
2019-03-05T23:41:50.846Z,20.50
2019-03-05T23:44:21.584Z,26.07
2019-03-05T23:46:52.457Z,26.25
2019-03-05T23:49:23.314Z,22.87
2019-03-05T23:51:53.966Z,22.37
2019-03-05T23:54:27.178Z,23.25
2019-03-05T23:56:59.461Z,25.40
2019-03-05T23:59:34.920Z,24.55
